sensor_id;sensor_type;location;lat;lon;timestamp;pressure;altitude;pressure_sealevel;temperature;humidity
62978;BME280;49073;42.352;23.808;2023-02-12T00:02:13;95531.94;;;0.23;38.39
62978;BME280;49073;42.352;23.808;2023-02-12T00:05:13;95533.75;;;0.22;39.12
62978;BME280;49073;42.352;23.808;2023-02-12T00:08:15;95521.69;;;0.32;38.59
62978;BME280;49073;42.352;23.808;2023-02-12T00:11:18;95524.03;;;0.38;38.60
62978;BME280;49073;42.352;23.808;2023-02-12T00:14:18;95528.50;;;0.33;38.74
62978;BME280;49073;42.352;23.808;2023-02-12T00:17:19;95525.38;;;0.31;38.56
62978;BME280;49073;42.352;23.808;2023-02-12T00:20:19;95523.50;;;0.31;38.87
62978;BME280;49073;42.352;23.808;2023-02-12T00:23:20;95520.13;;;0.31;38.86
62978;BME280;49073;42.352;23.808;2023-02-12T00:26:21;95519.34;;;0.25;38.61
62978;BME280;49073;42.352;23.808;2023-02-12T00:29:22;95515.63;;;0.41;38.02
62978;BME280;49073;42.352;23.808;2023-02-12T00:32:22;95514.84;;;0.41;38.49
62978;BME280;49073;42.352;23.808;2023-02-12T00:35:23;95507.50;;;0.43;38.34
62978;BME280;49073;42.352;23.808;2023-02-12T00:38:23;95509.56;;;0.51;38.41
62978;BME280;49073;42.352;23.808;2023-02-12T00:41:24;95509.28;;;0.53;38.65
62978;BME280;49073;42.352;23.808;2023-02-12T00:44:25;95501.66;;;0.62;38.33
62978;BME280;49073;42.352;23.808;2023-02-12T00:47:25;95509.59;;;0.46;39.40
62978;BME280;49073;42.352;23.808;2023-02-12T00:50:26;95503.28;;;0.52;38.93
62978;BME280;49073;42.352;23.808;2023-02-12T00:53:27;95503.53;;;0.46;39.05
62978;BME280;49073;42.352;23.808;2023-02-12T00:56:27;95507.25;;;0.39;39.64
62978;BME280;49073;42.352;23.808;2023-02-12T00:59:29;95508.56;;;0.37;39.90
62978;BME280;49073;42.352;23.808;2023-02-12T01:02:29;95492.56;;;0.38;40.03
62978;BME280;49073;42.352;23.808;2023-02-12T01:05:30;95486.03;;;0.36;40.14
62978;BME280;49073;42.352;23.808;2023-02-12T01:08:31;95479.47;;;0.33;40.34
62978;BME280;49073;42.352;23.808;2023-02-12T01:11:31;95475.50;;;0.46;39.07
62978;BME280;49073;42.352;23.808;2023-02-12T01:14:32;95465.47;;;0.58;38.26
62978;BME280;49073;42.352;23.808;2023-02-12T01:17:33;95464.41;;;0.65;38.07
62978;BME280;49073;42.352;23.808;2023-02-12T01:20:33;95458.13;;;0.61;38.61
62978;BME280;49073;42.352;23.808;2023-02-12T01:23:34;95465.22;;;0.55;38.99
62978;BME280;49073;42.352;23.808;2023-02-12T01:26:35;95465.50;;;0.53;38.06
62978;BME280;49073;42.352;23.808;2023-02-12T01:29:36;95453.22;;;0.43;38.79
62978;BME280;49073;42.352;23.808;2023-02-12T01:32:38;95447.47;;;0.36;38.72
62978;BME280;49073;42.352;23.808;2023-02-12T01:35:39;95440.63;;;0.40;38.09
62978;BME280;49073;42.352;23.808;2023-02-12T01:38:40;95439.59;;;0.36;38.70
62978;BME280;49073;42.352;23.808;2023-02-12T01:41:42;95451.16;;;0.30;38.84
62978;BME280;49073;42.352;23.808;2023-02-12T01:45:11;95449.88;;;0.22;38.79
62978;BME280;49073;42.352;23.808;2023-02-12T01:48:05;95449.84;;;0.38;38.29
62978;BME280;49073;42.352;23.808;2023-02-12T01:51:08;95444.84;;;0.41;38.62
62978;BME280;49073;42.352;23.808;2023-02-12T01:54:12;95443.31;;;0.30;39.91
62978;BME280;49073;42.352;23.808;2023-02-12T01:57:15;95442.81;;;0.23;40.35
62978;BME280;49073;42.352;23.808;2023-02-12T02:00:21;95444.66;;;0.17;40.22
62978;BME280;49073;42.352;23.808;2023-02-12T02:03:24;95443.84;;;0.27;39.76
62978;BME280;49073;42.352;23.808;2023-02-12T02:06:34;95442.25;;;0.31;39.80
62978;BME280;49073;42.352;23.808;2023-02-12T02:09:37;95439.16;;;0.19;40.32
62978;BME280;49073;42.352;23.808;2023-02-12T02:12:38;95449.34;;;0.25;39.55
62978;BME280;49073;42.352;23.808;2023-02-12T02:15:59;95450.66;;;0.23;39.79
62978;BME280;49073;42.352;23.808;2023-02-12T02:19:11;95446.50;;;0.17;39.74
62978;BME280;49073;42.352;23.808;2023-02-12T02:22:42;95453.50;;;0.37;38.88
62978;BME280;49073;42.352;23.808;2023-02-12T02:32:05;95456.16;;;0.21;40.04
62978;BME280;49073;42.352;23.808;2023-02-12T02:35:16;95446.22;;;0.18;40.44
62978;BME280;49073;42.352;23.808;2023-02-12T02:41:55;95448.91;;;-0.08;41.05
62978;BME280;49073;42.352;23.808;2023-02-12T02:45:01;95433.94;;;-0.02;41.08
62978;BME280;49073;42.352;23.808;2023-02-12T02:48:08;95447.81;;;0.09;41.08
62978;BME280;49073;42.352;23.808;2023-02-12T02:51:21;95447.06;;;0.03;41.79
62978;BME280;49073;42.352;23.808;2023-02-12T02:54:35;95443.91;;;0.06;41.71
62978;BME280;49073;42.352;23.808;2023-02-12T02:58:18;95435.53;;;0.04;42.04
62978;BME280;49073;42.352;23.808;2023-02-12T03:01:18;95442.38;;;0.00;42.26
62978;BME280;49073;42.352;23.808;2023-02-12T03:04:27;95439.97;;;0.04;41.75
62978;BME280;49073;42.352;23.808;2023-02-12T03:07:38;95436.28;;;0.15;41.35
62978;BME280;49073;42.352;23.808;2023-02-12T03:10:44;95439.38;;;0.22;40.97
62978;BME280;49073;42.352;23.808;2023-02-12T03:17:20;95441.00;;;0.08;42.38
62978;BME280;49073;42.352;23.808;2023-02-12T03:20:31;95452.53;;;0.12;42.84
62978;BME280;49073;42.352;23.808;2023-02-12T03:24:21;95448.06;;;0.18;43.14
62978;BME280;49073;42.352;23.808;2023-02-12T03:27:33;95448.09;;;0.12;43.23
62978;BME280;49073;42.352;23.808;2023-02-12T03:30:42;95452.78;;;0.16;43.25
62978;BME280;49073;42.352;23.808;2023-02-12T03:34:15;95452.53;;;0.12;43.70
62978;BME280;49073;42.352;23.808;2023-02-12T03:37:30;95442.31;;;0.16;43.67
62978;BME280;49073;42.352;23.808;2023-02-12T03:40:34;95454.63;;;0.15;43.80
62978;BME280;49073;42.352;23.808;2023-02-12T03:43:47;95459.09;;;0.09;43.90
62978;BME280;49073;42.352;23.808;2023-02-12T03:50:11;95462.22;;;0.17;44.08
62978;BME280;49073;42.352;23.808;2023-02-12T03:53:12;95460.66;;;0.16;44.17
62978;BME280;49073;42.352;23.808;2023-02-12T03:56:26;95459.63;;;0.11;44.27
62978;BME280;49073;42.352;23.808;2023-02-12T03:59:28;95465.63;;;0.17;44.39
62978;BME280;49073;42.352;23.808;2023-02-12T04:02:29;95465.09;;;0.20;44.31
62978;BME280;49073;42.352;23.808;2023-02-12T04:05:31;95469.00;;;0.28;44.55
62978;BME280;49073;42.352;23.808;2023-02-12T04:08:32;95474.25;;;0.28;45.32
62978;BME280;49073;42.352;23.808;2023-02-12T04:15:06;95469.47;;;0.46;44.52
62978;BME280;49073;42.352;23.808;2023-02-12T04:18:38;95462.94;;;0.43;45.10
62978;BME280;49073;42.352;23.808;2023-02-12T04:22:23;95467.38;;;0.42;45.11
62978;BME280;49073;42.352;23.808;2023-02-12T04:25:35;95468.16;;;0.43;45.32
62978;BME280;49073;42.352;23.808;2023-02-12T04:38:39;95479.94;;;0.51;47.45
62978;BME280;49073;42.352;23.808;2023-02-12T04:41:41;95484.91;;;0.52;47.39
62978;BME280;49073;42.352;23.808;2023-02-12T04:44:43;95478.91;;;0.47;47.70
62978;BME280;49073;42.352;23.808;2023-02-12T04:47:43;95490.94;;;0.53;47.67
62978;BME280;49073;42.352;23.808;2023-02-12T04:50:44;95496.19;;;0.53;48.08
62978;BME280;49073;42.352;23.808;2023-02-12T04:53:46;95492.50;;;0.54;48.47
62978;BME280;49073;42.352;23.808;2023-02-12T04:56:47;95494.59;;;0.57;48.76
62978;BME280;49073;42.352;23.808;2023-02-12T04:59:48;95499.56;;;0.64;48.77
62978;BME280;49073;42.352;23.808;2023-02-12T05:02:48;95504.78;;;0.69;49.01
62978;BME280;49073;42.352;23.808;2023-02-12T05:05:49;95506.34;;;0.70;49.29
62978;BME280;49073;42.352;23.808;2023-02-12T05:08:52;95512.09;;;0.72;48.99
62978;BME280;49073;42.352;23.808;2023-02-12T05:11:52;95507.16;;;0.70;49.02
62978;BME280;49073;42.352;23.808;2023-02-12T05:14:53;95508.97;;;0.70;49.27
62978;BME280;49073;42.352;23.808;2023-02-12T05:17:53;95516.59;;;0.71;49.38
62978;BME280;49073;42.352;23.808;2023-02-12T05:20:58;95518.16;;;0.72;49.49
62978;BME280;49073;42.352;23.808;2023-02-12T05:24:00;95517.34;;;0.72;49.73
62978;BME280;49073;42.352;23.808;2023-02-12T05:27:02;95512.63;;;0.74;50.07
62978;BME280;49073;42.352;23.808;2023-02-12T05:30:04;95526.00;;;0.78;49.77
62978;BME280;49073;42.352;23.808;2023-02-12T05:33:06;95524.69;;;0.75;50.00
62978;BME280;49073;42.352;23.808;2023-02-12T05:36:09;95531.50;;;0.76;50.36
62978;BME280;49073;42.352;23.808;2023-02-12T05:39:09;95537.81;;;0.75;50.18
62978;BME280;49073;42.352;23.808;2023-02-12T05:42:10;95542.28;;;0.75;50.26
62978;BME280;49073;42.352;23.808;2023-02-12T05:45:11;95554.34;;;0.76;50.40
62978;BME280;49073;42.352;23.808;2023-02-12T05:48:11;95550.41;;;0.73;50.56
62978;BME280;49073;42.352;23.808;2023-02-12T05:51:18;95554.88;;;0.72;50.42
62978;BME280;49073;42.352;23.808;2023-02-12T05:54:20;95564.06;;;0.70;50.34
62978;BME280;49073;42.352;23.808;2023-02-12T05:57:21;95554.88;;;0.72;50.55
62978;BME280;49073;42.352;23.808;2023-02-12T06:00:22;95562.75;;;0.72;50.47
62978;BME280;49073;42.352;23.808;2023-02-12T06:03:22;95569.84;;;0.67;50.49
62978;BME280;49073;42.352;23.808;2023-02-12T06:06:24;95577.69;;;0.67;50.49
62978;BME280;49073;42.352;23.808;2023-02-12T06:09:25;95577.16;;;0.70;50.35
62978;BME280;49073;42.352;23.808;2023-02-12T06:12:26;95575.31;;;0.76;50.58
62978;BME280;49073;42.352;23.808;2023-02-12T06:15:26;95569.78;;;0.77;50.06
62978;BME280;49073;42.352;23.808;2023-02-12T06:18:27;95576.34;;;0.80;49.67
62978;BME280;49073;42.352;23.808;2023-02-12T06:21:28;95569.00;;;0.82;49.90
62978;BME280;49073;42.352;23.808;2023-02-12T06:24:29;95569.25;;;0.85;49.86
62978;BME280;49073;42.352;23.808;2023-02-12T06:27:29;95569.50;;;0.89;49.29
62978;BME280;49073;42.352;23.808;2023-02-12T06:30:33;95570.56;;;0.88;49.78
62978;BME280;49073;42.352;23.808;2023-02-12T06:33:33;95570.81;;;0.86;50.26
62978;BME280;49073;42.352;23.808;2023-02-12T06:36:40;95562.72;;;0.78;51.70
62978;BME280;49073;42.352;23.808;2023-02-12T06:39:41;95576.91;;;0.71;54.74
62978;BME280;49073;42.352;23.808;2023-02-12T06:42:42;95586.91;;;0.64;59.60
62978;BME280;49073;42.352;23.808;2023-02-12T06:45:43;95586.16;;;0.48;63.33
62978;BME280;49073;42.352;23.808;2023-02-12T06:48:43;95601.38;;;0.41;64.45
62978;BME280;49073;42.352;23.808;2023-02-12T06:51:44;95593.78;;;0.29;66.28
62978;BME280;49073;42.352;23.808;2023-02-12T06:54:44;95596.94;;;0.21;67.99
62978;BME280;49073;42.352;23.808;2023-02-12T06:57:45;95598.00;;;0.14;69.23
62978;BME280;49073;42.352;23.808;2023-02-12T07:00:46;95604.53;;;0.12;69.60
62978;BME280;49073;42.352;23.808;2023-02-12T07:03:48;95602.19;;;0.10;70.54
62978;BME280;49073;42.352;23.808;2023-02-12T07:06:49;95600.34;;;0.11;70.62
62978;BME280;49073;42.352;23.808;2023-02-12T07:09:50;95611.34;;;0.13;70.16
62978;BME280;49073;42.352;23.808;2023-02-12T07:12:50;95603.47;;;0.13;70.01
62978;BME280;49073;42.352;23.808;2023-02-12T07:15:51;95615.00;;;0.17;69.29
62978;BME280;49073;42.352;23.808;2023-02-12T07:18:51;95593.25;;;0.22;69.65
62978;BME280;49073;42.352;23.808;2023-02-12T07:21:52;95602.69;;;0.28;69.58
62978;BME280;49073;42.352;23.808;2023-02-12T07:24:52;95597.19;;;0.30;69.27
62978;BME280;49073;42.352;23.808;2023-02-12T07:27:53;95598.25;;;0.34;69.20
62978;BME280;49073;42.352;23.808;2023-02-12T07:30:53;95597.97;;;0.35;67.95
62978;BME280;49073;42.352;23.808;2023-02-12T07:33:56;95597.94;;;0.40;67.62
62978;BME280;49073;42.352;23.808;2023-02-12T07:36:56;95590.06;;;0.46;67.17
62978;BME280;49073;42.352;23.808;2023-02-12T07:39:57;95594.53;;;0.50;66.39
62978;BME280;49073;42.352;23.808;2023-02-12T07:42:57;95599.50;;;0.52;65.94
62978;BME280;49073;42.352;23.808;2023-02-12T07:46:08;95611.31;;;0.54;65.93
62978;BME280;49073;42.352;23.808;2023-02-12T07:49:27;95607.38;;;0.52;65.77
62978;BME280;49073;42.352;23.808;2023-02-12T07:52:28;95598.97;;;0.50;65.76
62978;BME280;49073;42.352;23.808;2023-02-12T07:55:29;95609.47;;;0.50;66.24
62978;BME280;49073;42.352;23.808;2023-02-12T07:58:29;95608.44;;;0.46;66.53
62978;BME280;49073;42.352;23.808;2023-02-12T08:01:38;95622.59;;;0.45;66.34
62978;BME280;49073;42.352;23.808;2023-02-12T08:04:39;95621.81;;;0.44;66.34
62978;BME280;49073;42.352;23.808;2023-02-12T08:07:39;95615.75;;;0.49;66.01
62978;BME280;49073;42.352;23.808;2023-02-12T08:10:40;95622.56;;;0.55;65.36
62978;BME280;49073;42.352;23.808;2023-02-12T08:13:41;95620.75;;;0.61;65.59
62978;BME280;49073;42.352;23.808;2023-02-12T08:16:43;95625.72;;;0.62;65.59
62978;BME280;49073;42.352;23.808;2023-02-12T08:19:44;95623.09;;;0.62;65.38
62978;BME280;49073;42.352;23.808;2023-02-12T08:22:44;95634.63;;;0.66;65.97
62978;BME280;49073;42.352;23.808;2023-02-12T08:25:45;95633.31;;;0.64;66.44
62978;BME280;49073;42.352;23.808;2023-02-12T08:28:50;95635.69;;;0.65;66.92
62978;BME280;49073;42.352;23.808;2023-02-12T08:31:57;95642.72;;;0.75;67.38
62978;BME280;49073;42.352;23.808;2023-02-12T08:34:58;95631.19;;;0.76;66.57
62978;BME280;49073;42.352;23.808;2023-02-12T08:37:59;95633.28;;;0.79;67.36
62978;BME280;49073;42.352;23.808;2023-02-12T08:41:10;95641.41;;;0.83;67.31
62978;BME280;49073;42.352;23.808;2023-02-12T08:44:11;95643.75;;;0.84;67.07
62978;BME280;49073;42.352;23.808;2023-02-12T08:47:12;95650.31;;;0.87;67.15
62978;BME280;49073;42.352;23.808;2023-02-12T08:50:12;95649.25;;;0.93;66.88
62978;BME280;49073;42.352;23.808;2023-02-12T08:53:13;95655.03;;;0.90;66.78
62978;BME280;49073;42.352;23.808;2023-02-12T08:56:16;95659.75;;;0.93;66.72
62978;BME280;49073;42.352;23.808;2023-02-12T08:59:17;95657.38;;;1.02;66.85
62978;BME280;49073;42.352;23.808;2023-02-12T09:02:17;95657.63;;;1.06;66.71
62978;BME280;49073;42.352;23.808;2023-02-12T09:05:18;95667.84;;;1.12;66.28
62978;BME280;49073;42.352;23.808;2023-02-12T09:08:18;95668.09;;;1.21;66.24
62978;BME280;49073;42.352;23.808;2023-02-12T09:11:22;95683.25;;;1.35;65.56
62978;BME280;49073;42.352;23.808;2023-02-12T09:14:25;95676.13;;;1.51;65.33
62978;BME280;49073;42.352;23.808;2023-02-12T09:17:26;95669.81;;;1.47;65.20
62978;BME280;49073;42.352;23.808;2023-02-12T09:20:27;95664.53;;;1.57;65.59
62978;BME280;49073;42.352;23.808;2023-02-12T09:23:28;95676.03;;;1.66;65.68
62978;BME280;49073;42.352;23.808;2023-02-12T09:26:29;95677.06;;;1.70;65.06
62978;BME280;49073;42.352;23.808;2023-02-12T09:29:30;95674.19;;;1.67;65.12
62978;BME280;49073;42.352;23.808;2023-02-12T09:32:30;95677.28;;;1.74;65.14
62978;BME280;49073;42.352;23.808;2023-02-12T09:35:33;95669.41;;;1.74;65.18
62978;BME280;49073;42.352;23.808;2023-02-12T09:38:35;95669.63;;;1.83;65.19
62978;BME280;49073;42.352;23.808;2023-02-12T09:48:30;95679.16;;;1.73;65.67
62978;BME280;49073;42.352;23.808;2023-02-12T09:51:28;95693.81;;;1.80;65.69
62978;BME280;49073;42.352;23.808;2023-02-12T09:54:37;95699.91;;;1.70;64.85
62978;BME280;49073;42.352;23.808;2023-02-12T09:57:38;95690.75;;;1.67;65.01
62978;BME280;49073;42.352;23.808;2023-02-12T10:00:39;95675.72;;;1.73;64.70
62978;BME280;49073;42.352;23.808;2023-02-12T10:03:39;95677.03;;;1.76;65.06
62978;BME280;49073;42.352;23.808;2023-02-12T10:06:47;95665.38;;;1.92;64.53
62978;BME280;49073;42.352;23.808;2023-02-12T10:17:29;95681.69;;;2.29;62.85
62978;BME280;49073;42.352;23.808;2023-02-12T10:27:19;95691.19;;;2.25;62.70
62978;BME280;49073;42.352;23.808;2023-02-12T10:30:34;95678.66;;;2.11;63.03
62978;BME280;49073;42.352;23.808;2023-02-12T10:33:43;95688.41;;;2.11;63.42
62978;BME280;49073;42.352;23.808;2023-02-12T10:36:48;95677.56;;;2.17;63.04
62978;BME280;49073;42.352;23.808;2023-02-12T10:39:54;95683.72;;;2.42;62.87
62978;BME280;49073;42.352;23.808;2023-02-12T10:42:57;95687.16;;;2.67;62.32
62978;BME280;49073;42.352;23.808;2023-02-12T10:45:59;95691.06;;;2.75;61.64
62978;BME280;49073;42.352;23.808;2023-02-12T10:49:01;95699.63;;;2.86;62.25
62978;BME280;49073;42.352;23.808;2023-02-12T10:55:33;95702.66;;;3.03;61.13
62978;BME280;49073;42.352;23.808;2023-02-12T10:58:34;95702.91;;;3.02;60.84
62978;BME280;49073;42.352;23.808;2023-02-12T11:01:38;95701.13;;;2.97;60.76
62978;BME280;49073;42.352;23.808;2023-02-12T11:04:40;95699.31;;;2.93;60.80
62978;BME280;49073;42.352;23.808;2023-02-12T11:07:49;95696.84;;;2.77;60.50
62978;BME280;49073;42.352;23.808;2023-02-12T11:10:51;95697.06;;;2.81;60.71
62978;BME280;49073;42.352;23.808;2023-02-12T11:14:17;95697.94;;;2.71;61.29
62978;BME280;49073;42.352;23.808;2023-02-12T11:17:24;95707.38;;;2.77;61.53
62978;BME280;49073;42.352;23.808;2023-02-12T11:20:28;95708.13;;;2.78;61.06
62978;BME280;49073;42.352;23.808;2023-02-12T11:23:35;95695.56;;;2.69;61.37
62978;BME280;49073;42.352;23.808;2023-02-12T11:26:37;95702.91;;;2.72;61.44
62978;BME280;49073;42.352;23.808;2023-02-12T11:29:37;95698.13;;;2.80;61.20
62978;BME280;49073;42.352;23.808;2023-02-12T11:32:38;95706.47;;;2.87;61.08
62978;BME280;49073;42.352;23.808;2023-02-12T11:35:50;95702.25;;;2.86;61.01
62978;BME280;49073;42.352;23.808;2023-02-12T11:38:56;95708.13;;;2.78;61.00
62978;BME280;49073;42.352;23.808;2023-02-12T11:42:06;95709.59;;;2.89;61.71
62978;BME280;49073;42.352;23.808;2023-02-12T11:45:17;95708.59;;;2.85;61.49
62978;BME280;49073;42.352;23.808;2023-02-12T11:48:34;95708.53;;;2.66;61.61
62978;BME280;49073;42.352;23.808;2023-02-12T11:51:37;95713.13;;;2.50;62.83
62978;BME280;49073;42.352;23.808;2023-02-12T11:54:41;95701.06;;;2.43;62.72
62978;BME280;49073;42.352;23.808;2023-02-12T11:58:31;95701.59;;;2.40;62.18
62978;BME280;49073;42.352;23.808;2023-02-12T12:01:23;95714.50;;;2.37;62.29
62978;BME280;49073;42.352;23.808;2023-02-12T12:04:29;95713.25;;;2.29;62.94
62978;BME280;49073;42.352;23.808;2023-02-12T12:07:35;95714.31;;;2.28;63.27
62978;BME280;49073;42.352;23.808;2023-02-12T12:11:09;95721.16;;;2.24;63.10
62978;BME280;49073;42.352;23.808;2023-02-12T12:14:30;95717.47;;;2.25;63.36
62978;BME280;49073;42.352;23.808;2023-02-12T12:17:58;95718.78;;;2.27;63.45
62978;BME280;49073;42.352;23.808;2023-02-12T12:21:42;95714.03;;;2.29;63.31
62978;BME280;49073;42.352;23.808;2023-02-12T12:24:51;95713.75;;;2.36;64.18
62978;BME280;49073;42.352;23.808;2023-02-12T12:34:16;95733.22;;;2.30;64.88
62978;BME280;49073;42.352;23.808;2023-02-12T12:37:39;95736.56;;;2.41;65.32
62978;BME280;49073;42.352;23.808;2023-02-12T12:40:59;95748.09;;;2.50;64.70
62978;BME280;49073;42.352;23.808;2023-02-12T12:44:27;95745.78;;;2.43;63.83
62978;BME280;49073;42.352;23.808;2023-02-12T13:08:20;95781.81;;;2.43;63.46
62978;BME280;49073;42.352;23.808;2023-02-12T13:11:52;95773.19;;;2.37;64.07
62978;BME280;49073;42.352;23.808;2023-02-12T13:15:04;95766.34;;;2.36;63.50
62978;BME280;49073;42.352;23.808;2023-02-12T13:18:16;95761.56;;;2.43;63.47
62978;BME280;49073;42.352;23.808;2023-02-12T13:25:18;95768.28;;;2.60;62.99
62978;BME280;49073;42.352;23.808;2023-02-12T13:28:50;95769.03;;;2.66;62.33
62978;BME280;49073;42.352;23.808;2023-02-12T13:32:00;95767.44;;;2.65;62.10
62978;BME280;49073;42.352;23.808;2023-02-12T13:35:05;95774.28;;;2.71;61.97
62978;BME280;49073;42.352;23.808;2023-02-12T13:38:07;95772.41;;;2.71;62.39
62978;BME280;49073;42.352;23.808;2023-02-12T13:41:14;95777.66;;;2.71;61.67
62978;BME280;49073;42.352;23.808;2023-02-12T13:57:17;95785.09;;;2.64;60.74
62978;BME280;49073;42.352;23.808;2023-02-12T14:03:51;95794.56;;;2.65;60.91
62978;BME280;49073;42.352;23.808;2023-02-12T14:10:04;95803.25;;;2.60;60.80
62978;BME280;49073;42.352;23.808;2023-02-12T14:13:21;95800.66;;;2.55;60.50
62978;BME280;49073;42.352;23.808;2023-02-12T14:26:21;95833.63;;;2.47;61.89
62978;BME280;49073;42.352;23.808;2023-02-12T14:29:22;95837.53;;;2.50;61.54
62978;BME280;49073;42.352;23.808;2023-02-12T14:39:27;95846.28;;;2.40;62.42
62978;BME280;49073;42.352;23.808;2023-02-12T14:45:35;95848.41;;;2.38;63.35
62978;BME280;49073;42.352;23.808;2023-02-12T14:48:55;95847.59;;;2.38;62.94
62978;BME280;49073;42.352;23.808;2023-02-12T14:55:25;95872.38;;;2.26;63.33
62978;BME280;49073;42.352;23.808;2023-02-12T14:58:27;95874.72;;;2.28;63.41
62978;BME280;49073;42.352;23.808;2023-02-12T15:01:34;95877.38;;;2.23;63.63
62978;BME280;49073;42.352;23.808;2023-02-12T15:04:37;95872.91;;;2.28;63.66
62978;BME280;49073;42.352;23.808;2023-02-12T15:07:49;95878.19;;;2.23;63.61
62978;BME280;49073;42.352;23.808;2023-02-12T15:10:54;95893.66;;;2.30;64.18
62978;BME280;49073;42.352;23.808;2023-02-12T15:14:33;95890.56;;;2.17;64.17
62978;BME280;49073;42.352;23.808;2023-02-12T15:17:31;95889.53;;;2.13;64.36
62978;BME280;49073;42.352;23.808;2023-02-12T15:20:39;95906.38;;;2.07;65.08
62978;BME280;49073;42.352;23.808;2023-02-12T15:23:44;95907.97;;;1.98;65.21
62978;BME280;49073;42.352;23.808;2023-02-12T15:26:50;95917.44;;;1.99;65.11
62978;BME280;49073;42.352;23.808;2023-02-12T15:29:52;95920.31;;;1.97;65.79
62978;BME280;49073;42.352;23.808;2023-02-12T15:32:55;95927.16;;;1.93;65.50
62978;BME280;49073;42.352;23.808;2023-02-12T15:35:56;95939.78;;;1.96;65.49
62978;BME280;49073;42.352;23.808;2023-02-12T15:39:03;95954.50;;;1.87;65.82
62978;BME280;49073;42.352;23.808;2023-02-12T15:42:04;95961.09;;;1.89;66.06
62978;BME280;49073;42.352;23.808;2023-02-12T15:48:19;95961.88;;;1.85;66.58
62978;BME280;49073;42.352;23.808;2023-02-12T15:51:28;95975.81;;;1.91;66.44
62978;BME280;49073;42.352;23.808;2023-02-12T15:54:31;95975.03;;;1.80;67.03
62978;BME280;49073;42.352;23.808;2023-02-12T15:57:31;95973.72;;;1.77;67.21
62978;BME280;49073;42.352;23.808;2023-02-12T16:00:40;95980.56;;;1.83;67.22
62978;BME280;49073;42.352;23.808;2023-02-12T16:03:42;95980.00;;;1.76;67.17
62978;BME280;49073;42.352;23.808;2023-02-12T16:06:42;95995.78;;;1.71;67.50
62978;BME280;49073;42.352;23.808;2023-02-12T16:09:43;95994.75;;;1.77;66.79
62978;BME280;49073;42.352;23.808;2023-02-12T16:12:46;96004.72;;;1.70;67.70
62978;BME280;49073;42.352;23.808;2023-02-12T16:16:22;96011.00;;;1.74;67.62
62978;BME280;49073;42.352;23.808;2023-02-12T16:19:33;96012.88;;;1.58;68.24
62978;BME280;49073;42.352;23.808;2023-02-12T16:22:41;96024.16;;;1.69;67.97
62978;BME280;49073;42.352;23.808;2023-02-12T16:25:42;96021.81;;;1.67;67.81
62978;BME280;49073;42.352;23.808;2023-02-12T16:28:49;96031.25;;;1.63;67.73
62978;BME280;49073;42.352;23.808;2023-02-12T16:31:56;96030.47;;;1.68;67.66
62978;BME280;49073;42.352;23.808;2023-02-12T16:35:06;96037.81;;;1.66;67.63
62978;BME280;49073;42.352;23.808;2023-02-12T16:41:34;96039.16;;;1.63;67.85
62978;BME280;49073;42.352;23.808;2023-02-12T16:44:50;96043.59;;;1.73;68.00
62978;BME280;49073;42.352;23.808;2023-02-12T16:47:52;96060.41;;;1.62;68.14
62978;BME280;49073;42.352;23.808;2023-02-12T16:50:57;96061.47;;;1.60;67.94
62978;BME280;49073;42.352;23.808;2023-02-12T16:53:59;96069.34;;;1.55;68.39
62978;BME280;49073;42.352;23.808;2023-02-12T16:57:00;96071.97;;;1.55;67.64
62978;BME280;49073;42.352;23.808;2023-02-12T17:00:03;96076.47;;;1.70;67.89
62978;BME280;49073;42.352;23.808;2023-02-12T17:03:04;96080.38;;;1.63;68.23
62978;BME280;49073;42.352;23.808;2023-02-12T17:06:05;96084.59;;;1.64;68.04
62978;BME280;49073;42.352;23.808;2023-02-12T17:09:05;96092.22;;;1.55;68.06
62978;BME280;49073;42.352;23.808;2023-02-12T17:12:06;96093.25;;;1.54;68.40
62978;BME280;49073;42.352;23.808;2023-02-12T17:15:09;96098.50;;;1.54;67.95
62978;BME280;49073;42.352;23.808;2023-02-12T17:18:10;96102.72;;;1.55;68.04
62978;BME280;49073;42.352;23.808;2023-02-12T17:21:27;96115.78;;;1.44;68.39
62978;BME280;49073;42.352;23.808;2023-02-12T17:24:30;96117.88;;;1.32;69.01
62978;BME280;49073;42.352;23.808;2023-02-12T17:27:31;96117.34;;;1.30;69.61
62978;BME280;49073;42.352;23.808;2023-02-12T17:30:31;96120.75;;;1.30;69.40
62978;BME280;49073;42.352;23.808;2023-02-12T17:33:32;96118.66;;;1.27;69.53
62978;BME280;49073;42.352;23.808;2023-02-12T17:36:33;96120.94;;;1.13;70.46
62978;BME280;49073;42.352;23.808;2023-02-12T17:39:33;96129.78;;;0.92;70.64
62978;BME280;49073;42.352;23.808;2023-02-12T17:42:34;96125.28;;;0.87;70.58
62978;BME280;49073;42.352;23.808;2023-02-12T17:45:39;96131.59;;;0.91;70.45
62978;BME280;49073;42.352;23.808;2023-02-12T17:48:42;96148.19;;;0.97;70.32
62978;BME280;49073;42.352;23.808;2023-02-12T17:51:43;96154.75;;;0.99;70.17
62978;BME280;49073;42.352;23.808;2023-02-12T17:54:44;96164.16;;;0.90;70.82
62978;BME280;49073;42.352;23.808;2023-02-12T17:57:45;96168.81;;;0.83;71.30
62978;BME280;49073;42.352;23.808;2023-02-12T18:00:45;96158.13;;;0.90;71.61
62978;BME280;49073;42.352;23.808;2023-02-12T18:03:46;96165.22;;;0.94;71.27
62978;BME280;49073;42.352;23.808;2023-02-12T18:06:47;96170.78;;;1.03;70.29
62978;BME280;49073;42.352;23.808;2023-02-12T18:09:47;96171.28;;;0.95;70.54
62978;BME280;49073;42.352;23.808;2023-02-12T18:12:48;96165.44;;;0.87;71.12
62978;BME280;49073;42.352;23.808;2023-02-12T18:15:50;96161.00;;;0.93;70.57
62978;BME280;49073;42.352;23.808;2023-02-12T18:18:51;96165.81;;;1.12;69.26
62978;BME280;49073;42.352;23.808;2023-02-12T18:21:51;96172.13;;;1.11;69.42
62978;BME280;49073;42.352;23.808;2023-02-12T18:24:52;96160.31;;;1.08;70.16
62978;BME280;49073;42.352;23.808;2023-02-12T18:27:53;96167.47;;;1.18;69.71
62978;BME280;49073;42.352;23.808;2023-02-12T18:30:55;96171.66;;;1.19;69.55
62978;BME280;49073;42.352;23.808;2023-02-12T18:33:56;96177.38;;;1.11;69.34
62978;BME280;49073;42.352;23.808;2023-02-12T18:36:56;96173.47;;;1.19;69.10